Terminal Aerodrome Forecast
Issued by NWS

Home | Current Version | Previous Version | Text Only | Print | Product List | Glossary On
Versions: 1 2 3 4 5 6 7 8 9 10 11 12 13 14 15 16 17 18 19 20 21 22
000
FTUS45 KSLC 211120
TAF36U
TAF
K36U 211120Z 2112/2212 VRB03KT P6SM VCSH SCT080
     FM211600 VRB05KT P6SM OVC080
      TEMPO 2116/2120 -SHRA OVC060
     FM212000 16006KT P6SM VCTS SCT060CB BKN080
     FM220100 18006KT P6SM BKN080=

USA.gov is the U.S. government's official web portal to all federal, state and local government web resources and services.